Chugiak, Alaska
Current Conditions -  °F | °C
As of 10:36 AM on Sunday 21 Dec 2014 (Local Time) from PABV Reporting Station
Overcast Overcast  
Wind Chill: 18°   Ceiling: 2100
Heat Index: 25°   Visibility: 1.7mi
Dew Point: 23°   Wind: 6mph
Humidity: 93%   Direction: 250°WSW
Pressure: 29.23"   Gusts: NA
Location:  61.4°N, 149.52°W
Report Text: PABV 211936Z AUTO 25005KT 1 3/4SM BKN021 OVC030 M04/M05 A2923 RMK AO1 VIS 1V5
Loading
Personal Weather Stations






























Interactive Weather Map New forecast layout! Learn more

10-Day Weather Forecast

Advertisements
Track Severe Weather on mobile